sensor_id;sensor_type;location;lat;lon;timestamp;P1;durP1;ratioP1;P2;durP2;ratioP2
57067;SDS011;43391;47.448;18.904;2023-08-08T00:01:26;1.27;;;1.00;;
57067;SDS011;43391;47.448;18.904;2023-08-08T00:03:51;1.27;;;1.08;;
57067;SDS011;43391;47.448;18.904;2023-08-08T00:06:16;2.25;;;1.10;;
57067;SDS011;43391;47.448;18.904;2023-08-08T00:08:42;1.20;;;1.10;;
57067;SDS011;43391;47.448;18.904;2023-08-08T00:11:07;2.00;;;1.20;;
57067;SDS011;43391;47.448;18.904;2023-08-08T00:13:33;1.73;;;1.40;;
57067;SDS011;43391;47.448;18.904;2023-08-08T00:15:58;4.53;;;1.20;;
57067;SDS011;43391;47.448;18.904;2023-08-08T00:18:23;1.92;;;1.30;;
57067;SDS011;43391;47.448;18.904;2023-08-08T00:20:49;2.28;;;1.00;;
57067;SDS011;43391;47.448;18.904;2023-08-08T00:23:14;1.90;;;1.38;;
57067;SDS011;43391;47.448;18.904;2023-08-08T00:25:39;2.92;;;1.40;;
57067;SDS011;43391;47.448;18.904;2023-08-08T00:28:05;2.28;;;1.80;;
57067;SDS011;43391;47.448;18.904;2023-08-08T00:30:30;4.85;;;1.80;;
57067;SDS011;43391;47.448;18.904;2023-08-08T00:32:56;2.50;;;1.58;;
57067;SDS011;43391;47.448;18.904;2023-08-08T00:35:21;1.65;;;1.48;;
57067;SDS011;43391;47.448;18.904;2023-08-08T00:37:46;2.85;;;1.52;;
57067;SDS011;43391;47.448;18.904;2023-08-08T00:40:12;2.38;;;1.60;;
57067;SDS011;43391;47.448;18.904;2023-08-08T00:42:37;3.88;;;1.52;;
57067;SDS011;43391;47.448;18.904;2023-08-08T00:45:03;2.92;;;1.75;;
57067;SDS011;43391;47.448;18.904;2023-08-08T00:47:32;2.20;;;1.48;;
57067;SDS011;43391;47.448;18.904;2023-08-08T00:49:59;2.85;;;2.08;;
57067;SDS011;43391;47.448;18.904;2023-08-08T00:52:25;2.28;;;1.80;;
57067;SDS011;43391;47.448;18.904;2023-08-08T00:54:51;3.38;;;1.92;;
57067;SDS011;43391;47.448;18.904;2023-08-08T00:57:18;4.00;;;1.73;;
57067;SDS011;43391;47.448;18.904;2023-08-08T00:59:43;4.05;;;2.13;;
57067;SDS011;43391;47.448;18.904;2023-08-08T01:02:09;5.57;;;1.67;;
57067;SDS011;43391;47.448;18.904;2023-08-08T01:04:34;2.85;;;1.48;;
57067;SDS011;43391;47.448;18.904;2023-08-08T01:09:36;2.67;;;1.98;;
57067;SDS011;43391;47.448;18.904;2023-08-08T01:12:05;3.22;;;1.67;;
57067;SDS011;43391;47.448;18.904;2023-08-08T01:14:35;3.35;;;2.05;;
57067;SDS011;43391;47.448;18.904;2023-08-08T01:17:02;3.45;;;2.20;;
57067;SDS011;43391;47.448;18.904;2023-08-08T01:19:29;1.83;;;1.67;;
57067;SDS011;43391;47.448;18.904;2023-08-08T01:21:57;2.70;;;1.63;;
57067;SDS011;43391;47.448;18.904;2023-08-08T01:24:26;4.35;;;1.70;;
57067;SDS011;43391;47.448;18.904;2023-08-08T01:26:54;3.88;;;2.00;;
57067;SDS011;43391;47.448;18.904;2023-08-08T01:29:20;2.50;;;1.58;;
57067;SDS011;43391;47.448;18.904;2023-08-08T01:31:46;2.03;;;1.52;;
57067;SDS011;43391;47.448;18.904;2023-08-08T01:34:11;2.10;;;1.50;;
57067;SDS011;43391;47.448;18.904;2023-08-08T01:36:51;4.82;;;2.33;;
57067;SDS011;43391;47.448;18.904;2023-08-08T01:39:31;1.90;;;1.60;;
57067;SDS011;43391;47.448;18.904;2023-08-08T01:41:58;2.10;;;1.50;;
57067;SDS011;43391;47.448;18.904;2023-08-08T01:44:25;2.08;;;1.80;;
57067;SDS011;43391;47.448;18.904;2023-08-08T01:46:54;2.40;;;1.80;;
57067;SDS011;43391;47.448;18.904;2023-08-08T01:49:20;3.42;;;1.80;;
57067;SDS011;43391;47.448;18.904;2023-08-08T01:51:45;1.95;;;1.67;;
57067;SDS011;43391;47.448;18.904;2023-08-08T01:54:11;4.18;;;1.65;;
57067;SDS011;43391;47.448;18.904;2023-08-08T01:56:37;2.15;;;1.63;;
57067;SDS011;43391;47.448;18.904;2023-08-08T01:59:02;3.30;;;1.95;;
57067;SDS011;43391;47.448;18.904;2023-08-08T02:01:27;2.50;;;1.80;;
57067;SDS011;43391;47.448;18.904;2023-08-08T02:03:53;4.05;;;1.90;;
57067;SDS011;43391;47.448;18.904;2023-08-08T02:06:18;6.20;;;1.60;;
57067;SDS011;43391;47.448;18.904;2023-08-08T02:08:44;4.65;;;1.90;;
57067;SDS011;43391;47.448;18.904;2023-08-08T02:11:10;5.38;;;1.77;;
57067;SDS011;43391;47.448;18.904;2023-08-08T02:13:35;2.75;;;1.60;;
57067;SDS011;43391;47.448;18.904;2023-08-08T02:16:01;2.35;;;1.83;;
57067;SDS011;43391;47.448;18.904;2023-08-08T02:18:27;3.20;;;1.75;;
57067;SDS011;43391;47.448;18.904;2023-08-08T02:20:52;3.55;;;1.50;;
57067;SDS011;43391;47.448;18.904;2023-08-08T02:23:17;3.65;;;1.77;;
57067;SDS011;43391;47.448;18.904;2023-08-08T02:25:43;4.45;;;1.83;;
57067;SDS011;43391;47.448;18.904;2023-08-08T02:28:09;2.15;;;1.60;;
57067;SDS011;43391;47.448;18.904;2023-08-08T02:30:34;6.80;;;2.10;;
57067;SDS011;43391;47.448;18.904;2023-08-08T02:33:00;3.05;;;1.73;;
57067;SDS011;43391;47.448;18.904;2023-08-08T02:35:25;5.35;;;1.98;;
57067;SDS011;43391;47.448;18.904;2023-08-08T02:37:50;3.80;;;1.83;;
57067;SDS011;43391;47.448;18.904;2023-08-08T02:40:16;3.20;;;2.03;;
57067;SDS011;43391;47.448;18.904;2023-08-08T02:42:41;2.72;;;2.00;;
57067;SDS011;43391;47.448;18.904;2023-08-08T02:45:06;2.40;;;1.45;;
57067;SDS011;43391;47.448;18.904;2023-08-08T02:47:32;1.75;;;1.60;;
57067;SDS011;43391;47.448;18.904;2023-08-08T02:49:58;2.17;;;1.65;;
57067;SDS011;43391;47.448;18.904;2023-08-08T02:52:23;4.50;;;2.05;;
57067;SDS011;43391;47.448;18.904;2023-08-08T02:54:48;4.25;;;2.33;;
57067;SDS011;43391;47.448;18.904;2023-08-08T02:57:14;3.78;;;1.83;;
57067;SDS011;43391;47.448;18.904;2023-08-08T02:59:39;3.45;;;1.98;;
57067;SDS011;43391;47.448;18.904;2023-08-08T03:02:05;2.05;;;1.70;;
57067;SDS011;43391;47.448;18.904;2023-08-08T03:04:30;3.72;;;2.13;;
57067;SDS011;43391;47.448;18.904;2023-08-08T03:06:55;5.40;;;2.08;;
57067;SDS011;43391;47.448;18.904;2023-08-08T03:09:21;1.80;;;1.52;;
57067;SDS011;43391;47.448;18.904;2023-08-08T03:11:46;1.77;;;1.50;;
57067;SDS011;43391;47.448;18.904;2023-08-08T03:14:12;2.58;;;1.70;;
57067;SDS011;43391;47.448;18.904;2023-08-08T03:16:37;2.72;;;1.95;;
57067;SDS011;43391;47.448;18.904;2023-08-08T03:19:03;3.55;;;1.92;;
57067;SDS011;43391;47.448;18.904;2023-08-08T03:21:28;2.42;;;1.88;;
57067;SDS011;43391;47.448;18.904;2023-08-08T03:23:54;3.63;;;2.03;;
57067;SDS011;43391;47.448;18.904;2023-08-08T03:26:19;3.67;;;2.10;;
57067;SDS011;43391;47.448;18.904;2023-08-08T03:28:44;2.83;;;1.70;;
57067;SDS011;43391;47.448;18.904;2023-08-08T03:31:10;2.47;;;1.80;;
57067;SDS011;43391;47.448;18.904;2023-08-08T03:33:35;3.28;;;1.77;;
57067;SDS011;43391;47.448;18.904;2023-08-08T03:36:01;2.58;;;1.88;;
57067;SDS011;43391;47.448;18.904;2023-08-08T03:38:26;4.38;;;2.30;;
57067;SDS011;43391;47.448;18.904;2023-08-08T03:40:52;3.10;;;2.00;;
57067;SDS011;43391;47.448;18.904;2023-08-08T03:43:17;2.83;;;1.90;;
57067;SDS011;43391;47.448;18.904;2023-08-08T03:45:43;3.28;;;1.83;;
57067;SDS011;43391;47.448;18.904;2023-08-08T03:48:09;3.10;;;1.92;;
57067;SDS011;43391;47.448;18.904;2023-08-08T03:50:34;3.25;;;2.22;;
57067;SDS011;43391;47.448;18.904;2023-08-08T03:53:00;3.67;;;2.50;;
57067;SDS011;43391;47.448;18.904;2023-08-08T03:55:25;5.00;;;2.03;;
57067;SDS011;43391;47.448;18.904;2023-08-08T03:57:50;4.70;;;2.10;;
57067;SDS011;43391;47.448;18.904;2023-08-08T04:00:16;3.90;;;2.15;;
57067;SDS011;43391;47.448;18.904;2023-08-08T04:02:42;3.53;;;2.08;;
57067;SDS011;43391;47.448;18.904;2023-08-08T04:05:07;3.97;;;2.17;;
57067;SDS011;43391;47.448;18.904;2023-08-08T04:07:34;5.22;;;2.40;;
57067;SDS011;43391;47.448;18.904;2023-08-08T04:10:00;3.15;;;2.17;;
57067;SDS011;43391;47.448;18.904;2023-08-08T04:12:25;2.22;;;2.03;;
57067;SDS011;43391;47.448;18.904;2023-08-08T04:14:51;3.38;;;2.28;;
57067;SDS011;43391;47.448;18.904;2023-08-08T04:17:16;5.82;;;2.75;;
57067;SDS011;43391;47.448;18.904;2023-08-08T04:19:41;4.35;;;2.50;;
57067;SDS011;43391;47.448;18.904;2023-08-08T04:22:07;6.18;;;2.30;;
57067;SDS011;43391;47.448;18.904;2023-08-08T04:24:32;8.23;;;2.58;;
57067;SDS011;43391;47.448;18.904;2023-08-08T04:26:57;3.78;;;2.13;;
57067;SDS011;43391;47.448;18.904;2023-08-08T04:29:23;4.10;;;2.10;;
57067;SDS011;43391;47.448;18.904;2023-08-08T04:31:48;4.15;;;2.53;;
57067;SDS011;43391;47.448;18.904;2023-08-08T04:34:13;4.03;;;2.35;;
57067;SDS011;43391;47.448;18.904;2023-08-08T04:36:39;3.72;;;2.42;;
57067;SDS011;43391;47.448;18.904;2023-08-08T04:39:04;5.22;;;2.63;;
57067;SDS011;43391;47.448;18.904;2023-08-08T04:41:29;6.97;;;2.63;;
57067;SDS011;43391;47.448;18.904;2023-08-08T04:43:55;4.93;;;2.38;;
57067;SDS011;43391;47.448;18.904;2023-08-08T04:46:20;4.57;;;2.72;;
57067;SDS011;43391;47.448;18.904;2023-08-08T04:48:45;3.95;;;2.40;;
57067;SDS011;43391;47.448;18.904;2023-08-08T04:51:11;2.78;;;2.25;;
57067;SDS011;43391;47.448;18.904;2023-08-08T04:53:36;9.77;;;2.60;;
57067;SDS011;43391;47.448;18.904;2023-08-08T04:56:02;4.60;;;2.58;;
57067;SDS011;43391;47.448;18.904;2023-08-08T04:58:27;3.60;;;2.47;;
57067;SDS011;43391;47.448;18.904;2023-08-08T05:00:53;8.40;;;2.60;;
57067;SDS011;43391;47.448;18.904;2023-08-08T05:03:20;4.45;;;2.47;;
57067;SDS011;43391;47.448;18.904;2023-08-08T05:05:45;3.65;;;2.20;;
57067;SDS011;43391;47.448;18.904;2023-08-08T05:08:11;6.60;;;2.58;;
57067;SDS011;43391;47.448;18.904;2023-08-08T05:10:38;5.85;;;3.08;;
57067;SDS011;43391;47.448;18.904;2023-08-08T05:13:03;3.72;;;2.42;;
57067;SDS011;43391;47.448;18.904;2023-08-08T05:15:29;5.57;;;2.53;;
57067;SDS011;43391;47.448;18.904;2023-08-08T05:17:54;6.28;;;2.60;;
57067;SDS011;43391;47.448;18.904;2023-08-08T05:20:20;5.35;;;2.80;;
57067;SDS011;43391;47.448;18.904;2023-08-08T05:22:46;3.17;;;2.15;;
57067;SDS011;43391;47.448;18.904;2023-08-08T05:25:12;6.20;;;2.70;;
57067;SDS011;43391;47.448;18.904;2023-08-08T05:27:37;4.45;;;2.80;;
57067;SDS011;43391;47.448;18.904;2023-08-08T05:30:03;5.20;;;2.78;;
57067;SDS011;43391;47.448;18.904;2023-08-08T05:32:29;4.82;;;2.75;;
57067;SDS011;43391;47.448;18.904;2023-08-08T05:34:55;3.90;;;2.38;;
57067;SDS011;43391;47.448;18.904;2023-08-08T05:37:21;7.55;;;2.97;;
57067;SDS011;43391;47.448;18.904;2023-08-08T05:39:47;4.97;;;2.38;;
57067;SDS011;43391;47.448;18.904;2023-08-08T05:42:12;4.60;;;3.10;;
57067;SDS011;43391;47.448;18.904;2023-08-08T05:44:38;4.25;;;2.63;;
57067;SDS011;43391;47.448;18.904;2023-08-08T05:47:03;6.20;;;2.90;;
57067;SDS011;43391;47.448;18.904;2023-08-08T05:49:29;5.32;;;2.85;;
57067;SDS011;43391;47.448;18.904;2023-08-08T05:51:54;4.13;;;2.45;;
57067;SDS011;43391;47.448;18.904;2023-08-08T05:54:19;5.97;;;3.00;;
57067;SDS011;43391;47.448;18.904;2023-08-08T05:56:45;4.95;;;2.60;;
57067;SDS011;43391;47.448;18.904;2023-08-08T05:59:11;5.93;;;2.55;;
57067;SDS011;43391;47.448;18.904;2023-08-08T06:01:36;5.00;;;2.58;;
57067;SDS011;43391;47.448;18.904;2023-08-08T06:04:02;5.32;;;2.75;;
57067;SDS011;43391;47.448;18.904;2023-08-08T06:06:28;3.95;;;2.53;;
57067;SDS011;43391;47.448;18.904;2023-08-08T06:08:53;4.70;;;2.42;;
57067;SDS011;43391;47.448;18.904;2023-08-08T06:11:19;5.43;;;2.60;;
57067;SDS011;43391;47.448;18.904;2023-08-08T06:13:46;6.38;;;2.78;;
57067;SDS011;43391;47.448;18.904;2023-08-08T06:16:11;5.28;;;2.60;;
57067;SDS011;43391;47.448;18.904;2023-08-08T06:18:37;4.82;;;2.83;;
57067;SDS011;43391;47.448;18.904;2023-08-08T06:21:02;4.90;;;2.50;;
57067;SDS011;43391;47.448;18.904;2023-08-08T06:23:27;9.15;;;2.92;;
57067;SDS011;43391;47.448;18.904;2023-08-08T06:25:53;8.18;;;2.83;;
57067;SDS011;43391;47.448;18.904;2023-08-08T06:28:18;7.03;;;2.80;;
57067;SDS011;43391;47.448;18.904;2023-08-08T06:30:44;7.80;;;2.72;;
57067;SDS011;43391;47.448;18.904;2023-08-08T06:33:09;6.20;;;2.72;;
57067;SDS011;43391;47.448;18.904;2023-08-08T06:35:35;4.75;;;2.53;;
57067;SDS011;43391;47.448;18.904;2023-08-08T06:38:00;4.50;;;2.22;;
57067;SDS011;43391;47.448;18.904;2023-08-08T06:40:25;3.15;;;2.17;;
57067;SDS011;43391;47.448;18.904;2023-08-08T06:42:52;6.50;;;2.85;;
57067;SDS011;43391;47.448;18.904;2023-08-08T06:45:17;6.20;;;2.63;;
57067;SDS011;43391;47.448;18.904;2023-08-08T06:47:43;4.63;;;2.42;;
57067;SDS011;43391;47.448;18.904;2023-08-08T06:50:08;3.95;;;2.05;;
57067;SDS011;43391;47.448;18.904;2023-08-08T06:52:34;6.75;;;2.72;;
57067;SDS011;43391;47.448;18.904;2023-08-08T06:54:59;4.85;;;2.35;;
57067;SDS011;43391;47.448;18.904;2023-08-08T06:57:24;9.10;;;2.67;;
57067;SDS011;43391;47.448;18.904;2023-08-08T06:59:50;4.28;;;2.40;;
57067;SDS011;43391;47.448;18.904;2023-08-08T07:02:18;8.57;;;2.78;;
57067;SDS011;43391;47.448;18.904;2023-08-08T07:04:45;5.47;;;2.40;;
57067;SDS011;43391;47.448;18.904;2023-08-08T07:07:10;6.80;;;2.60;;
57067;SDS011;43391;47.448;18.904;2023-08-08T07:09:36;6.13;;;2.38;;
57067;SDS011;43391;47.448;18.904;2023-08-08T07:12:02;5.60;;;2.70;;
57067;SDS011;43391;47.448;18.904;2023-08-08T07:14:28;4.40;;;2.30;;
57067;SDS011;43391;47.448;18.904;2023-08-08T07:16:54;5.85;;;2.47;;
57067;SDS011;43391;47.448;18.904;2023-08-08T07:19:19;7.25;;;2.50;;
57067;SDS011;43391;47.448;18.904;2023-08-08T07:21:44;4.78;;;2.47;;
57067;SDS011;43391;47.448;18.904;2023-08-08T07:24:10;6.13;;;2.33;;
57067;SDS011;43391;47.448;18.904;2023-08-08T07:26:35;6.53;;;2.63;;
57067;SDS011;43391;47.448;18.904;2023-08-08T07:29:00;8.27;;;3.45;;
57067;SDS011;43391;47.448;18.904;2023-08-08T07:31:26;4.07;;;2.53;;
57067;SDS011;43391;47.448;18.904;2023-08-08T07:33:51;4.43;;;2.80;;
57067;SDS011;43391;47.448;18.904;2023-08-08T07:36:16;4.03;;;2.58;;
57067;SDS011;43391;47.448;18.904;2023-08-08T07:38:42;5.47;;;2.45;;
57067;SDS011;43391;47.448;18.904;2023-08-08T07:41:07;3.55;;;2.50;;
57067;SDS011;43391;47.448;18.904;2023-08-08T07:43:32;4.35;;;2.20;;
57067;SDS011;43391;47.448;18.904;2023-08-08T07:45:58;4.78;;;2.65;;
57067;SDS011;43391;47.448;18.904;2023-08-08T07:48:24;6.00;;;2.47;;
57067;SDS011;43391;47.448;18.904;2023-08-08T07:50:49;7.50;;;3.00;;
57067;SDS011;43391;47.448;18.904;2023-08-08T07:53:14;3.83;;;2.45;;
57067;SDS011;43391;47.448;18.904;2023-08-08T07:55:40;2.67;;;1.90;;
57067;SDS011;43391;47.448;18.904;2023-08-08T07:58:05;7.57;;;2.78;;
57067;SDS011;43391;47.448;18.904;2023-08-08T08:00:30;5.50;;;1.98;;
57067;SDS011;43391;47.448;18.904;2023-08-08T08:02:56;4.88;;;2.33;;
57067;SDS011;43391;47.448;18.904;2023-08-08T08:05:21;5.13;;;2.55;;
57067;SDS011;43391;47.448;18.904;2023-08-08T08:07:46;4.93;;;2.38;;
57067;SDS011;43391;47.448;18.904;2023-08-08T08:10:12;3.47;;;2.38;;
57067;SDS011;43391;47.448;18.904;2023-08-08T08:12:38;4.97;;;2.33;;
57067;SDS011;43391;47.448;18.904;2023-08-08T08:15:05;8.27;;;2.50;;
57067;SDS011;43391;47.448;18.904;2023-08-08T08:17:31;6.45;;;2.60;;
57067;SDS011;43391;47.448;18.904;2023-08-08T08:19:57;4.78;;;2.08;;
57067;SDS011;43391;47.448;18.904;2023-08-08T08:22:22;4.78;;;2.35;;
57067;SDS011;43391;47.448;18.904;2023-08-08T08:24:47;4.45;;;2.20;;
57067;SDS011;43391;47.448;18.904;2023-08-08T08:27:13;4.35;;;2.55;;
57067;SDS011;43391;47.448;18.904;2023-08-08T08:29:39;7.20;;;2.83;;
57067;SDS011;43391;47.448;18.904;2023-08-08T08:32:04;3.92;;;2.08;;
57067;SDS011;43391;47.448;18.904;2023-08-08T08:34:30;3.50;;;2.30;;
57067;SDS011;43391;47.448;18.904;2023-08-08T08:36:55;5.28;;;2.33;;
57067;SDS011;43391;47.448;18.904;2023-08-08T08:39:20;3.78;;;2.30;;
57067;SDS011;43391;47.448;18.904;2023-08-08T08:41:49;3.95;;;2.25;;
57067;SDS011;43391;47.448;18.904;2023-08-08T08:44:23;4.90;;;2.40;;
57067;SDS011;43391;47.448;18.904;2023-08-08T08:46:51;4.25;;;2.55;;
57067;SDS011;43391;47.448;18.904;2023-08-08T08:49:17;7.15;;;2.40;;
57067;SDS011;43391;47.448;18.904;2023-08-08T08:51:46;3.97;;;2.63;;
57067;SDS011;43391;47.448;18.904;2023-08-08T08:54:12;5.30;;;2.42;;
57067;SDS011;43391;47.448;18.904;2023-08-08T08:56:39;3.75;;;2.53;;
57067;SDS011;43391;47.448;18.904;2023-08-08T08:59:05;3.70;;;2.28;;
57067;SDS011;43391;47.448;18.904;2023-08-08T09:01:31;6.80;;;2.53;;
57067;SDS011;43391;47.448;18.904;2023-08-08T09:03:57;6.13;;;2.30;;
57067;SDS011;43391;47.448;18.904;2023-08-08T09:06:23;4.82;;;2.28;;
57067;SDS011;43391;47.448;18.904;2023-08-08T09:08:48;4.70;;;2.20;;
57067;SDS011;43391;47.448;18.904;2023-08-08T09:11:14;4.88;;;2.47;;
57067;SDS011;43391;47.448;18.904;2023-08-08T09:13:39;7.18;;;2.42;;
57067;SDS011;43391;47.448;18.904;2023-08-08T09:16:06;4.63;;;2.20;;
57067;SDS011;43391;47.448;18.904;2023-08-08T09:18:33;2.87;;;1.97;;
57067;SDS011;43391;47.448;18.904;2023-08-08T09:20:59;4.50;;;2.20;;
57067;SDS011;43391;47.448;18.904;2023-08-08T09:23:24;4.97;;;2.55;;
57067;SDS011;43391;47.448;18.904;2023-08-08T09:25:50;4.93;;;2.40;;
57067;SDS011;43391;47.448;18.904;2023-08-08T09:28:15;3.88;;;2.38;;
57067;SDS011;43391;47.448;18.904;2023-08-08T09:30:42;5.03;;;2.35;;
57067;SDS011;43391;47.448;18.904;2023-08-08T09:33:08;2.92;;;2.33;;
57067;SDS011;43391;47.448;18.904;2023-08-08T09:35:33;5.78;;;2.38;;
57067;SDS011;43391;47.448;18.904;2023-08-08T09:37:59;5.32;;;2.13;;
57067;SDS011;43391;47.448;18.904;2023-08-08T09:40:24;6.32;;;2.22;;
57067;SDS011;43391;47.448;18.904;2023-08-08T09:42:51;4.93;;;2.13;;
57067;SDS011;43391;47.448;18.904;2023-08-08T09:45:18;4.57;;;2.28;;
57067;SDS011;43391;47.448;18.904;2023-08-08T09:47:43;4.05;;;2.35;;
57067;SDS011;43391;47.448;18.904;2023-08-08T09:50:08;5.65;;;2.13;;
57067;SDS011;43391;47.448;18.904;2023-08-08T09:52:34;3.67;;;2.00;;
57067;SDS011;43391;47.448;18.904;2023-08-08T09:55:03;4.63;;;2.45;;
57067;SDS011;43391;47.448;18.904;2023-08-08T09:57:30;6.53;;;2.20;;
57067;SDS011;43391;47.448;18.904;2023-08-08T09:59:55;7.03;;;2.75;;
57067;SDS011;43391;47.448;18.904;2023-08-08T10:02:21;3.53;;;2.22;;
57067;SDS011;43391;47.448;18.904;2023-08-08T10:04:46;4.28;;;2.30;;
57067;SDS011;43391;47.448;18.904;2023-08-08T10:07:12;3.45;;;2.25;;
57067;SDS011;43391;47.448;18.904;2023-08-08T10:09:37;3.38;;;2.45;;
57067;SDS011;43391;47.448;18.904;2023-08-08T10:12:07;6.22;;;2.88;;
57067;SDS011;43391;47.448;18.904;2023-08-08T10:14:35;5.75;;;2.42;;
57067;SDS011;43391;47.448;18.904;2023-08-08T10:17:03;5.20;;;2.50;;
57067;SDS011;43391;47.448;18.904;2023-08-08T10:19:29;7.05;;;2.97;;
57067;SDS011;43391;47.448;18.904;2023-08-08T10:21:56;6.22;;;2.28;;
57067;SDS011;43391;47.448;18.904;2023-08-08T10:24:23;3.55;;;2.20;;
57067;SDS011;43391;47.448;18.904;2023-08-08T10:26:52;3.30;;;1.80;;
57067;SDS011;43391;47.448;18.904;2023-08-08T10:29:19;5.55;;;2.35;;
57067;SDS011;43391;47.448;18.904;2023-08-08T10:31:52;7.68;;;2.83;;
57067;SDS011;43391;47.448;18.904;2023-08-08T10:34:26;6.87;;;2.50;;
57067;SDS011;43391;47.448;18.904;2023-08-08T10:37:03;7.78;;;2.20;;
57067;SDS011;43391;47.448;18.904;2023-08-08T10:39:55;4.47;;;2.22;;
57067;SDS011;43391;47.448;18.904;2023-08-08T10:42:23;2.97;;;2.20;;
57067;SDS011;43391;47.448;18.904;2023-08-08T10:44:54;6.18;;;2.40;;
57067;SDS011;43391;47.448;18.904;2023-08-08T10:47:24;8.13;;;2.30;;
57067;SDS011;43391;47.448;18.904;2023-08-08T10:50:04;7.18;;;2.30;;
57067;SDS011;43391;47.448;18.904;2023-08-08T10:52:33;6.72;;;2.78;;
57067;SDS011;43391;47.448;18.904;2023-08-08T10:55:02;4.57;;;2.30;;
57067;SDS011;43391;47.448;18.904;2023-08-08T10:57:28;4.28;;;2.08;;
57067;SDS011;43391;47.448;18.904;2023-08-08T10:59:55;5.03;;;2.15;;
57067;SDS011;43391;47.448;18.904;2023-08-08T11:02:21;4.25;;;2.20;;
57067;SDS011;43391;47.448;18.904;2023-08-08T11:04:47;4.28;;;2.55;;
57067;SDS011;43391;47.448;18.904;2023-08-08T11:07:14;3.78;;;2.50;;
57067;SDS011;43391;47.448;18.904;2023-08-08T11:09:39;4.45;;;2.15;;
57067;SDS011;43391;47.448;18.904;2023-08-08T11:12:05;5.78;;;2.50;;
57067;SDS011;43391;47.448;18.904;2023-08-08T11:14:32;4.45;;;2.10;;
57067;SDS011;43391;47.448;18.904;2023-08-08T11:16:57;5.78;;;2.58;;
57067;SDS011;43391;47.448;18.904;2023-08-08T11:19:23;4.07;;;2.15;;
57067;SDS011;43391;47.448;18.904;2023-08-08T11:21:50;10.63;;;2.75;;
57067;SDS011;43391;47.448;18.904;2023-08-08T11:24:15;8.80;;;2.25;;
57067;SDS011;43391;47.448;18.904;2023-08-08T11:26:42;5.88;;;2.67;;
57067;SDS011;43391;47.448;18.904;2023-08-08T11:31:35;5.25;;;2.17;;
57067;SDS011;43391;47.448;18.904;2023-08-08T11:34:01;2.97;;;2.10;;
57067;SDS011;43391;47.448;18.904;2023-08-08T11:36:30;8.65;;;2.80;;
57067;SDS011;43391;47.448;18.904;2023-08-08T11:38:57;7.13;;;2.65;;
57067;SDS011;43391;47.448;18.904;2023-08-08T11:41:24;5.20;;;2.40;;
57067;SDS011;43391;47.448;18.904;2023-08-08T11:43:51;3.92;;;2.45;;
57067;SDS011;43391;47.448;18.904;2023-08-08T11:46:18;4.95;;;2.25;;
57067;SDS011;43391;47.448;18.904;2023-08-08T11:48:46;4.22;;;2.30;;
57067;SDS011;43391;47.448;18.904;2023-08-08T11:51:13;5.18;;;2.13;;
57067;SDS011;43391;47.448;18.904;2023-08-08T11:56:16;7.20;;;2.60;;
57067;SDS011;43391;47.448;18.904;2023-08-08T11:58:42;4.22;;;2.33;;
57067;SDS011;43391;47.448;18.904;2023-08-08T12:01:08;3.92;;;2.53;;
57067;SDS011;43391;47.448;18.904;2023-08-08T12:03:35;8.73;;;2.63;;
57067;SDS011;43391;47.448;18.904;2023-08-08T12:06:10;4.07;;;2.22;;
57067;SDS011;43391;47.448;18.904;2023-08-08T12:08:37;5.43;;;2.35;;
57067;SDS011;43391;47.448;18.904;2023-08-08T12:11:02;5.55;;;2.65;;
57067;SDS011;43391;47.448;18.904;2023-08-08T12:13:29;11.82;;;2.70;;
57067;SDS011;43391;47.448;18.904;2023-08-08T12:15:56;5.55;;;2.20;;
57067;SDS011;43391;47.448;18.904;2023-08-08T12:18:23;7.15;;;1.92;;
57067;SDS011;43391;47.448;18.904;2023-08-08T12:20:49;6.15;;;2.55;;
57067;SDS011;43391;47.448;18.904;2023-08-08T12:23:14;4.70;;;2.58;;
57067;SDS011;43391;47.448;18.904;2023-08-08T12:25:41;4.90;;;2.50;;
57067;SDS011;43391;47.448;18.904;2023-08-08T12:28:07;4.28;;;2.60;;
57067;SDS011;43391;47.448;18.904;2023-08-08T12:30:33;4.78;;;2.08;;
57067;SDS011;43391;47.448;18.904;2023-08-08T12:32:58;5.43;;;2.05;;
57067;SDS011;43391;47.448;18.904;2023-08-08T12:35:23;4.25;;;2.15;;
57067;SDS011;43391;47.448;18.904;2023-08-08T12:37:51;4.82;;;2.03;;
57067;SDS011;43391;47.448;18.904;2023-08-08T12:40:17;4.43;;;2.22;;
57067;SDS011;43391;47.448;18.904;2023-08-08T12:42:42;6.55;;;1.92;;
57067;SDS011;43391;47.448;18.904;2023-08-08T12:45:08;4.00;;;2.05;;
57067;SDS011;43391;47.448;18.904;2023-08-08T12:47:34;6.30;;;2.40;;
57067;SDS011;43391;47.448;18.904;2023-08-08T12:50:02;3.93;;;2.20;;
57067;SDS011;43391;47.448;18.904;2023-08-08T12:52:31;3.45;;;2.25;;
57067;SDS011;43391;47.448;18.904;2023-08-08T12:54:56;2.97;;;1.88;;
57067;SDS011;43391;47.448;18.904;2023-08-08T12:57:21;3.60;;;2.30;;
57067;SDS011;43391;47.448;18.904;2023-08-08T12:59:47;3.28;;;2.00;;
57067;SDS011;43391;47.448;18.904;2023-08-08T13:02:12;5.60;;;2.33;;
57067;SDS011;43391;47.448;18.904;2023-08-08T13:04:38;5.72;;;2.22;;
57067;SDS011;43391;47.448;18.904;2023-08-08T13:07:03;4.18;;;2.00;;
57067;SDS011;43391;47.448;18.904;2023-08-08T13:09:29;5.38;;;2.17;;
57067;SDS011;43391;47.448;18.904;2023-08-08T13:11:54;3.35;;;2.30;;
57067;SDS011;43391;47.448;18.904;2023-08-08T13:14:20;3.72;;;1.95;;
57067;SDS011;43391;47.448;18.904;2023-08-08T13:16:46;7.38;;;2.10;;
57067;SDS011;43391;47.448;18.904;2023-08-08T13:19:11;5.30;;;2.20;;
57067;SDS011;43391;47.448;18.904;2023-08-08T13:21:37;5.78;;;1.90;;
57067;SDS011;43391;47.448;18.904;2023-08-08T13:24:02;5.18;;;2.17;;
57067;SDS011;43391;47.448;18.904;2023-08-08T13:26:29;4.60;;;2.30;;
57067;SDS011;43391;47.448;18.904;2023-08-08T13:28:54;3.53;;;2.08;;
57067;SDS011;43391;47.448;18.904;2023-08-08T13:31:19;5.85;;;2.30;;
57067;SDS011;43391;47.448;18.904;2023-08-08T13:33:45;4.93;;;2.08;;
57067;SDS011;43391;47.448;18.904;2023-08-08T13:36:10;3.70;;;2.03;;
57067;SDS011;43391;47.448;18.904;2023-08-08T13:38:35;2.83;;;2.10;;
57067;SDS011;43391;47.448;18.904;2023-08-08T13:41:01;2.55;;;1.80;;
57067;SDS011;43391;47.448;18.904;2023-08-08T13:43:26;2.38;;;1.80;;
57067;SDS011;43391;47.448;18.904;2023-08-08T13:45:52;3.95;;;1.88;;
57067;SDS011;43391;47.448;18.904;2023-08-08T13:48:17;3.50;;;1.80;;
57067;SDS011;43391;47.448;18.904;2023-08-08T13:50:42;3.08;;;2.22;;
57067;SDS011;43391;47.448;18.904;2023-08-08T13:53:08;4.53;;;1.95;;
57067;SDS011;43391;47.448;18.904;2023-08-08T13:55:33;2.53;;;1.83;;
57067;SDS011;43391;47.448;18.904;2023-08-08T13:58:04;4.78;;;2.10;;
57067;SDS011;43391;47.448;18.904;2023-08-08T14:00:30;3.17;;;1.77;;
57067;SDS011;43391;47.448;18.904;2023-08-08T14:02:56;3.03;;;1.95;;
57067;SDS011;43391;47.448;18.904;2023-08-08T14:05:22;2.65;;;1.60;;
57067;SDS011;43391;47.448;18.904;2023-08-08T14:07:48;3.65;;;2.00;;
57067;SDS011;43391;47.448;18.904;2023-08-08T14:10:13;2.88;;;1.80;;
57067;SDS011;43391;47.448;18.904;2023-08-08T14:12:38;2.60;;;1.58;;
57067;SDS011;43391;47.448;18.904;2023-08-08T14:15:04;1.75;;;1.55;;
57067;SDS011;43391;47.448;18.904;2023-08-08T14:17:30;3.08;;;1.88;;
57067;SDS011;43391;47.448;18.904;2023-08-08T14:19:56;4.47;;;1.90;;
57067;SDS011;43391;47.448;18.904;2023-08-08T14:22:21;2.70;;;1.70;;
57067;SDS011;43391;47.448;18.904;2023-08-08T14:24:46;2.20;;;1.75;;
57067;SDS011;43391;47.448;18.904;2023-08-08T14:27:12;2.05;;;1.45;;
57067;SDS011;43391;47.448;18.904;2023-08-08T14:29:37;2.45;;;1.67;;
57067;SDS011;43391;47.448;18.904;2023-08-08T14:32:02;2.30;;;1.80;;
57067;SDS011;43391;47.448;18.904;2023-08-08T14:34:29;2.88;;;2.00;;